createdAt,value
2019-03-17T00:01:40.108Z,21.47
2019-03-17T00:06:43.570Z,21.47
2019-03-17T00:11:47.028Z,21.45
2019-03-17T00:16:50.480Z,21.44
2019-03-17T00:21:53.942Z,21.45
2019-03-17T00:26:57.418Z,21.45
2019-03-17T00:32:00.856Z,21.45
2019-03-17T00:37:04.314Z,21.43
2019-03-17T00:42:07.771Z,21.44
2019-03-17T00:47:11.227Z,21.43
2019-03-17T00:52:14.686Z,21.43
2019-03-17T00:57:19.575Z,21.44
2019-03-17T01:02:23.032Z,21.45
2019-03-17T01:07:26.493Z,21.47
2019-03-17T01:12:29.952Z,21.48
2019-03-17T01:17:33.478Z,21.48
2019-03-17T01:22:36.948Z,21.48
2019-03-17T01:27:40.405Z,21.47
2019-03-17T01:32:43.860Z,21.47
2019-03-17T01:37:47.318Z,21.47
2019-03-17T01:42:50.778Z,21.47
2019-03-17T01:47:54.236Z,21.47
2019-03-17T01:52:57.689Z,21.47
2019-03-17T01:58:01.152Z,21.45
2019-03-17T02:03:04.678Z,21.45
2019-03-17T02:08:08.131Z,21.46
2019-03-17T02:13:11.587Z,21.45
2019-03-17T02:18:15.050Z,21.45
2019-03-17T02:23:18.506Z,21.46
2019-03-17T02:28:21.961Z,21.46
2019-03-17T02:33:25.415Z,21.45
2019-03-17T02:38:28.980Z,21.46
2019-03-17T02:43:32.417Z,21.46
2019-03-17T02:48:35.938Z,21.46
2019-03-17T02:53:39.333Z,21.46
2019-03-17T02:58:42.785Z,21.46
2019-03-17T03:03:46.261Z,21.45
2019-03-17T03:08:49.720Z,21.46
2019-03-17T03:13:53.179Z,21.46
2019-03-17T03:18:56.632Z,21.46
2019-03-17T03:24:00.089Z,21.46
2019-03-17T03:29:03.543Z,21.46
2019-03-17T03:34:07.029Z,21.45
2019-03-17T03:39:10.454Z,21.45
2019-03-17T03:44:13.911Z,21.44
2019-03-17T03:49:17.375Z,21.44
2019-03-17T03:54:20.830Z,21.44
2019-03-17T03:59:24.285Z,21.44
2019-03-17T04:04:27.741Z,21.45
2019-03-17T04:09:31.193Z,21.46
2019-03-17T04:14:34.646Z,21.46
2019-03-17T04:19:38.096Z,21.47
2019-03-17T04:24:41.561Z,21.46
2019-03-17T04:29:45.091Z,21.47
2019-03-17T04:34:48.549Z,21.46
2019-03-17T04:39:52.002Z,21.45
2019-03-17T04:44:55.456Z,21.46
2019-03-17T04:49:58.913Z,21.45
2019-03-17T04:55:03.277Z,21.43
2019-03-17T05:00:13.496Z,21.44
2019-03-17T05:05:16.954Z,21.44
2019-03-17T05:10:22.771Z,21.42
2019-03-17T05:15:25.624Z,21.44
2019-03-17T05:20:29.093Z,21.44
2019-03-17T05:25:32.569Z,21.45
2019-03-17T05:30:36.043Z,21.46
2019-03-17T05:35:39.521Z,21.48
2019-03-17T05:40:42.997Z,21.40
2019-03-17T05:45:46.469Z,21.49
2019-03-17T05:50:49.950Z,21.48
2019-03-17T05:55:53.425Z,21.48
2019-03-17T06:00:56.899Z,21.47
2019-03-17T06:06:00.368Z,21.47
2019-03-17T06:11:04.011Z,21.48
2019-03-17T06:16:07.478Z,21.46
2019-03-17T06:21:10.953Z,21.46
2019-03-17T06:26:14.426Z,21.45
2019-03-17T06:31:17.894Z,21.44
2019-03-17T06:36:21.369Z,21.46
2019-03-17T06:41:24.836Z,21.46
2019-03-17T06:46:28.304Z,21.48
2019-03-17T06:51:31.774Z,21.47
2019-03-17T06:56:35.228Z,21.46
2019-03-17T07:01:38.700Z,21.45
2019-03-17T07:06:42.155Z,21.47
2019-03-17T07:11:45.607Z,21.47
2019-03-17T07:16:49.066Z,21.50
2019-03-17T07:21:52.526Z,21.58
2019-03-17T07:26:55.982Z,21.70
2019-03-17T07:31:59.441Z,21.76
2019-03-17T07:37:02.896Z,21.82
2019-03-17T07:42:06.347Z,21.85
2019-03-17T07:47:09.800Z,21.87
2019-03-17T07:52:13.261Z,21.91
2019-03-17T07:57:16.710Z,21.93
2019-03-17T08:02:20.163Z,21.95
2019-03-17T08:07:23.622Z,21.96
2019-03-17T08:12:27.081Z,21.84
2019-03-17T08:17:30.543Z,21.74
2019-03-17T08:22:33.998Z,21.71
2019-03-17T08:27:37.491Z,21.69
2019-03-17T08:32:41.455Z,21.62
2019-03-17T08:37:44.971Z,21.58
2019-03-17T08:42:48.434Z,21.56
2019-03-17T08:47:57.831Z,21.52
2019-03-17T08:52:57.074Z,21.50
2019-03-17T08:58:00.525Z,21.43
2019-03-17T09:03:04.048Z,21.42
2019-03-17T09:08:07.512Z,21.49
2019-03-17T09:13:10.964Z,21.54
2019-03-17T09:18:14.419Z,21.59
2019-03-17T09:23:17.886Z,21.62
2019-03-17T09:28:21.350Z,21.63
2019-03-17T09:33:24.816Z,21.67
2019-03-17T09:38:28.272Z,21.69
2019-03-17T09:43:31.743Z,21.69
2019-03-17T09:48:35.206Z,21.72
2019-03-17T09:53:38.659Z,21.73
2019-03-17T09:58:42.116Z,21.75
2019-03-17T10:03:45.575Z,21.72
2019-03-17T10:08:59.372Z,21.71
2019-03-17T10:13:54.214Z,21.68
2019-03-17T10:18:57.667Z,21.69
2019-03-17T10:24:01.147Z,21.69
2019-03-17T10:29:04.671Z,21.67
2019-03-17T10:34:08.125Z,21.71
2019-03-17T10:39:12.690Z,21.71
2019-03-17T10:44:16.315Z,21.73
2019-03-17T10:49:19.768Z,21.73
2019-03-17T10:54:23.227Z,21.75
2019-03-17T10:59:27.819Z,21.77
2019-03-17T11:04:32.298Z,21.77
2019-03-17T11:09:35.747Z,21.79
2019-03-17T11:14:39.200Z,21.78
2019-03-17T11:19:42.658Z,21.78
2019-03-17T11:24:46.117Z,21.77
2019-03-17T11:29:49.574Z,21.76
2019-03-17T11:34:53.028Z,21.77
2019-03-17T11:39:56.484Z,21.76
2019-03-17T11:44:59.942Z,21.74
2019-03-17T11:50:04.051Z,21.75
2019-03-17T11:55:09.036Z,21.76
2019-03-17T12:00:17.686Z,21.78
2019-03-17T12:05:21.142Z,21.78
2019-03-17T12:10:24.767Z,21.77
2019-03-17T12:15:32.878Z,21.75
2019-03-17T12:20:36.330Z,21.74
2019-03-17T12:25:39.787Z,21.73
2019-03-17T12:30:43.245Z,21.71
2019-03-17T12:35:46.702Z,21.69
2019-03-17T12:40:50.148Z,21.68
2019-03-17T12:45:53.613Z,21.67
2019-03-17T12:50:57.069Z,21.66
2019-03-17T12:56:00.534Z,21.65
2019-03-17T13:01:04.062Z,21.64
2019-03-17T13:06:07.513Z,21.61
2019-03-17T13:11:10.964Z,21.61
2019-03-17T13:16:14.424Z,21.59
2019-03-17T13:21:17.880Z,21.58
2019-03-17T13:26:21.332Z,21.57
2019-03-17T13:31:24.799Z,21.57
2019-03-17T13:36:28.257Z,21.57
2019-03-17T13:41:31.711Z,21.56
2019-03-17T13:46:35.163Z,21.55
2019-03-17T13:51:38.616Z,21.55
2019-03-17T13:56:42.073Z,21.55
2019-03-17T14:01:45.538Z,21.55
2019-03-17T14:06:48.992Z,21.54
2019-03-17T14:11:52.443Z,21.53
2019-03-17T14:16:55.901Z,21.55
2019-03-17T14:21:59.361Z,21.55
2019-03-17T14:27:02.817Z,21.56
2019-03-17T14:32:06.279Z,21.57
2019-03-17T14:37:09.735Z,21.56
2019-03-17T14:42:13.193Z,21.57
2019-03-17T14:47:16.649Z,21.56
2019-03-17T14:52:20.111Z,21.56
2019-03-17T14:57:23.569Z,21.56
2019-03-17T15:02:27.027Z,21.57
2019-03-17T15:07:30.485Z,21.56
2019-03-17T15:12:33.945Z,21.56
2019-03-17T15:17:37.409Z,21.55
2019-03-17T15:22:42.512Z,21.54
2019-03-17T15:27:45.951Z,21.55
2019-03-17T15:32:49.409Z,21.53
2019-03-17T15:37:52.869Z,21.52
2019-03-17T15:42:56.496Z,21.52
2019-03-17T15:47:59.969Z,21.53
2019-03-17T15:53:03.416Z,21.53
2019-03-17T15:58:06.875Z,21.52
2019-03-17T16:03:10.328Z,21.53
2019-03-17T16:08:13.793Z,21.52
2019-03-17T16:13:17.259Z,21.52
2019-03-17T16:18:20.724Z,21.53
2019-03-17T16:23:24.500Z,21.53
2019-03-17T16:28:27.956Z,21.54
2019-03-17T16:33:31.414Z,21.54
2019-03-17T16:38:34.867Z,21.55
2019-03-17T16:43:38.329Z,21.53
2019-03-17T16:48:41.784Z,21.53
2019-03-17T16:53:45.241Z,21.53
2019-03-17T16:58:48.697Z,21.52
2019-03-17T17:03:52.158Z,21.53
2019-03-17T17:08:55.626Z,21.53
2019-03-17T17:13:59.080Z,21.53
2019-03-17T17:19:02.541Z,21.52
2019-03-17T17:24:05.999Z,21.53
2019-03-17T17:29:09.457Z,21.53
2019-03-17T17:34:12.913Z,21.52
2019-03-17T17:39:16.379Z,21.52
2019-03-17T17:44:19.830Z,21.52
2019-03-17T17:49:23.298Z,21.51
2019-03-17T17:54:26.741Z,21.52
2019-03-17T17:59:30.196Z,21.54
2019-03-17T18:04:33.675Z,21.57
2019-03-17T18:09:37.131Z,21.62
2019-03-17T18:14:40.590Z,21.61
2019-03-17T18:19:44.049Z,21.64
2019-03-17T18:24:47.514Z,21.67
2019-03-17T18:29:50.977Z,21.68
2019-03-17T18:34:54.431Z,21.69
2019-03-17T18:39:57.890Z,21.70
2019-03-17T18:45:01.353Z,21.73
2019-03-17T18:50:19.565Z,21.74
2019-03-17T18:55:14.773Z,21.76
2019-03-17T19:00:23.246Z,21.77
2019-03-17T19:05:26.700Z,21.79
2019-03-17T19:10:31.396Z,21.77
2019-03-17T19:15:34.853Z,21.76
2019-03-17T19:20:38.315Z,21.78
2019-03-17T19:25:41.771Z,21.78
2019-03-17T19:30:45.223Z,21.79
2019-03-17T19:35:48.683Z,21.80
2019-03-17T19:40:52.141Z,21.82
2019-03-17T19:45:55.596Z,21.82
2019-03-17T19:50:59.052Z,21.81
2019-03-17T19:56:02.508Z,21.82
2019-03-17T20:01:05.969Z,21.82
2019-03-17T20:06:10.676Z,21.82
2019-03-17T20:11:14.359Z,21.84
2019-03-17T20:16:17.899Z,21.85
2019-03-17T20:21:21.351Z,21.84
2019-03-17T20:26:24.803Z,21.84
2019-03-17T20:31:28.260Z,21.85
2019-03-17T20:36:31.716Z,21.84
2019-03-17T20:41:35.445Z,21.84
2019-03-17T20:46:38.907Z,21.83
2019-03-17T20:51:42.367Z,21.81
2019-03-17T20:56:45.826Z,21.80
2019-03-17T21:01:49.302Z,21.80
2019-03-17T21:06:52.762Z,21.71
2019-03-17T21:11:56.215Z,21.79
2019-03-17T21:16:59.673Z,21.78
2019-03-17T21:22:03.126Z,21.77
2019-03-17T21:27:06.580Z,21.78
2019-03-17T21:32:10.040Z,21.77
2019-03-17T21:37:13.493Z,21.77
2019-03-17T21:42:16.953Z,21.77
2019-03-17T21:47:20.407Z,21.76
2019-03-17T21:52:23.948Z,21.75
2019-03-17T21:57:27.407Z,21.74
2019-03-17T22:02:30.859Z,21.73
2019-03-17T22:07:34.312Z,21.74
2019-03-17T22:12:37.773Z,21.73
2019-03-17T22:17:41.229Z,21.73
2019-03-17T22:22:44.758Z,21.73
2019-03-17T22:27:48.208Z,21.71
2019-03-17T22:32:51.679Z,21.71
2019-03-17T22:37:55.120Z,21.71
2019-03-17T22:42:58.576Z,21.72
2019-03-17T22:48:02.035Z,21.69
2019-03-17T22:53:05.485Z,21.70
2019-03-17T22:58:08.936Z,21.69
2019-03-17T23:03:12.830Z,21.70
2019-03-17T23:08:16.285Z,21.69
2019-03-17T23:13:19.740Z,21.68
2019-03-17T23:18:23.203Z,21.68
2019-03-17T23:23:26.657Z,21.68
2019-03-17T23:28:30.111Z,21.65
2019-03-17T23:33:33.564Z,21.63
2019-03-17T23:38:37.015Z,21.62
2019-03-17T23:43:40.474Z,21.62
2019-03-17T23:48:43.932Z,21.59
2019-03-17T23:53:47.397Z,21.60
2019-03-17T23:58:50.841Z,21.59
